SAS2837 EKCH-GCLP
Flight info
| Callsign | SAS2837 |
|---|---|
| Flight time | N/A |
| Altitude | 40000 |
| Route | LANGO DCT RAXLU DCT EKERN DCT EMMUN DCT SISGA/N0477F410 DCT KOVIN DCT DUCRA UM728 RESMI UN857 DISAK DCT ARKIP DCT ARNAV DCT LMG DCT UVELI DCT OSMOB DCT VAVIX DCT NETUK DCT PPN DCT NOLSA DCT ALEPO DCT VASUM DCT BANEV DCT BAN DCT GOTOR DCT KAMPO DCT MONTO DCT MOLIN DCT HIJ DCT SVL DCT CLANA DCT KORNO UN857 IBALU/N0472F390 UN857 TERTO |
| Aircraft | A359/H-SABDE1E3FGHIJ1J2J3J4J5M1P2RWXYZ/LB2D1 |
Departure
| Time | 2026-04-26 08:15 |
|---|---|
| Airport | Copenhagen Kastrup Airport (EKCH) |
Arrival
| Time | N/A |
|---|---|
| Airport | Gran Canaria Airport (GCLP) |
| Time | Latitude | Longitude | Altitude | Speed | Heading |
|---|---|---|---|---|---|
| 2026-04-26 07:44 | 55.62626 | 12.64413 | 30 ft | 0 kts | 66° |
| 2026-04-26 08:02 | 55.62618 | 12.64381 | 29 ft | 4 kts | 66° |
| 2026-04-26 08:02 | 55.62607 | 12.64337 | 30 ft | 4 kts | 66° |
| 2026-04-26 08:02 | 55.62599 | 12.64302 | 28 ft | 4 kts | 71° |
| 2026-04-26 08:02 | 55.62594 | 12.64256 | 28 ft | 4 kts | 93° |
| 2026-04-26 08:03 | 55.62599 | 12.64211 | 28 ft | 4 kts | 115° |
| 2026-04-26 08:03 | 55.62610 | 12.64176 | 28 ft | 4 kts | 123° |
| 2026-04-26 08:03 | 55.62625 | 12.64136 | 28 ft | 4 kts | 123° |
| 2026-04-26 08:03 | 55.62638 | 12.64102 | 28 ft | 1 kts | 123° |
| 2026-04-26 08:04 | 55.62638 | 12.64101 | 28 ft | 0 kts | 123° |
| 2026-04-26 08:08 | 55.62638 | 12.64102 | 30 ft | 0 kts | 123° |
| 2026-04-26 08:08 | 55.62623 | 12.64140 | 30 ft | 8 kts | 123° |
| 2026-04-26 08:09 | 55.62577 | 12.64265 | 30 ft | 16 kts | 123° |
| 2026-04-26 08:09 | 55.62511 | 12.64433 | 30 ft | 14 kts | 139° |
| 2026-04-26 08:09 | 55.62425 | 12.64454 | 30 ft | 14 kts | 182° |
| 2026-04-26 08:09 | 55.62321 | 12.64429 | 29 ft | 17 kts | 191° |
| 2026-04-26 08:10 | 55.62194 | 12.64413 | 28 ft | 20 kts | 172° |
| 2026-04-26 08:10 | 55.62056 | 12.64451 | 30 ft | 21 kts | 171° |
| 2026-04-26 08:10 | 55.61906 | 12.64498 | 30 ft | 23 kts | 168° |
| 2026-04-26 08:10 | 55.61741 | 12.64554 | 30 ft | 25 kts | 169° |
| 2026-04-26 08:11 | 55.61595 | 12.64472 | 30 ft | 23 kts | 212° |
| 2026-04-26 08:11 | 55.61457 | 12.64308 | 30 ft | 25 kts | 213° |
| 2026-04-26 08:11 | 55.61305 | 12.64136 | 30 ft | 27 kts | 213° |
| 2026-04-26 08:11 | 55.61142 | 12.63949 | 30 ft | 29 kts | 213° |
| 2026-04-26 08:12 | 55.60968 | 12.63751 | 30 ft | 30 kts | 213° |
| 2026-04-26 08:12 | 55.60798 | 12.63555 | 30 ft | 27 kts | 213° |
| 2026-04-26 08:12 | 55.60640 | 12.63361 | 30 ft | 29 kts | 218° |
| 2026-04-26 08:12 | 55.60542 | 12.63218 | 30 ft | 7 kts | 218° |
| 2026-04-26 08:13 | 55.60501 | 12.63161 | 30 ft | 9 kts | 219° |
| 2026-04-26 08:13 | 55.60449 | 12.63136 | 30 ft | 8 kts | 169° |
| 2026-04-26 08:13 | 55.60399 | 12.63185 | 30 ft | 10 kts | 146° |
| 2026-04-26 08:13 | 55.60352 | 12.63284 | 32 ft | 11 kts | 115° |
| 2026-04-26 08:14 | 55.60379 | 12.63394 | 32 ft | 12 kts | 41° |
| 2026-04-26 08:14 | 55.60529 | 12.63632 | 30 ft | 60 kts | 41° |
| 2026-04-26 08:14 | 55.61019 | 12.64389 | 29 ft | 125 kts | 41° |
| 2026-04-26 08:14 | 55.61799 | 12.65624 | 180 ft | 165 kts | 41° |
| 2026-04-26 08:15 | 55.62585 | 12.67003 | 1107 ft | 154 kts | 40° |
| 2026-04-26 08:15 | 55.63410 | 12.68335 | 1695 ft | 172 kts | 36° |
| 2026-04-26 08:15 | 55.64400 | 12.69783 | 2040 ft | 197 kts | 36° |
| 2026-04-26 08:15 | 55.65498 | 12.71406 | 2570 ft | 213 kts | 36° |
| 2026-04-26 08:16 | 55.66702 | 12.73159 | 3021 ft | 235 kts | 36° |
| 2026-04-26 08:16 | 55.67986 | 12.75044 | 3767 ft | 242 kts | 36° |
| 2026-04-26 08:16 | 55.69278 | 12.76962 | 4698 ft | 243 kts | 36° |
| 2026-04-26 08:16 | 55.70579 | 12.78903 | 5592 ft | 246 kts | 37° |
| 2026-04-26 08:17 | 55.71783 | 12.81119 | 6438 ft | 256 kts | 51° |
| 2026-04-26 08:17 | 55.72467 | 12.84088 | 7281 ft | 269 kts | 77° |
| 2026-04-26 08:17 | 55.72301 | 12.87454 | 8093 ft | 285 kts | 105° |
| 2026-04-26 08:17 | 55.71183 | 12.90427 | 8878 ft | 301 kts | 137° |
| 2026-04-26 08:18 | 55.69299 | 12.92112 | 9640 ft | 311 kts | 169° |
| 2026-04-26 08:18 | 55.67142 | 12.92079 | 10411 ft | 313 kts | 193° |
| 2026-04-26 08:18 | 55.64936 | 12.91390 | 10851 ft | 334 kts | 192° |
| 2026-04-26 08:18 | 55.62529 | 12.91589 | 11156 ft | 360 kts | 171° |
| 2026-04-26 08:19 | 55.59982 | 12.91942 | 11624 ft | 372 kts | 187° |
| 2026-04-26 08:19 | 55.57490 | 12.90829 | 12320 ft | 370 kts | 211° |
| 2026-04-26 08:19 | 55.55436 | 12.88232 | 13046 ft | 362 kts | 233° |
| 2026-04-26 08:19 | 55.54083 | 12.84657 | 13807 ft | 351 kts | 254° |
| 2026-04-26 08:20 | 55.53051 | 12.80729 | 14524 ft | 360 kts | 249° |
| 2026-04-26 08:20 | 55.51597 | 12.77045 | 15258 ft | 368 kts | 242° |
| 2026-04-26 08:20 | 55.50337 | 12.73185 | 15987 ft | 358 kts | 256° |
| 2026-04-26 08:20 | 55.49734 | 12.69019 | 16722 ft | 345 kts | 272° |
| 2026-04-26 08:21 | 55.49819 | 12.64868 | 17479 ft | 334 kts | 288° |
| 2026-04-26 08:21 | 55.50375 | 12.60911 | 18252 ft | 334 kts | 291° |
| 2026-04-26 08:21 | 55.50715 | 12.56799 | 18968 ft | 346 kts | 279° |
| 2026-04-26 08:21 | 55.50661 | 12.52508 | 19659 ft | 353 kts | 275° |
| 2026-04-26 08:22 | 55.50502 | 12.48160 | 20337 ft | 357 kts | 274° |
| 2026-04-26 08:22 | 55.50327 | 12.43772 | 21027 ft | 360 kts | 274° |
| 2026-04-26 08:22 | 55.50150 | 12.39353 | 21718 ft | 363 kts | 274° |
| 2026-04-26 08:22 | 55.49972 | 12.34901 | 22391 ft | 366 kts | 274° |
| 2026-04-26 08:23 | 55.49764 | 12.30403 | 23022 ft | 371 kts | 271° |
| 2026-04-26 08:23 | 55.49253 | 12.25865 | 23658 ft | 384 kts | 262° |
| 2026-04-26 08:23 | 55.48228 | 12.21430 | 24229 ft | 399 kts | 250° |
| 2026-04-26 08:23 | 55.46696 | 12.17261 | 24815 ft | 410 kts | 242° |
| 2026-04-26 08:24 | 55.44972 | 12.13226 | 25409 ft | 413 kts | 241° |
| 2026-04-26 08:24 | 55.43222 | 12.09198 | 25963 ft | 415 kts | 241° |
| 2026-04-26 08:24 | 55.41466 | 12.05145 | 26551 ft | 417 kts | 241° |
| 2026-04-26 08:24 | 55.39709 | 12.01076 | 27113 ft | 419 kts | 241° |
| 2026-04-26 08:25 | 55.37944 | 11.96982 | 27677 ft | 421 kts | 241° |
| 2026-04-26 08:25 | 55.36171 | 11.92870 | 28234 ft | 423 kts | 241° |
| 2026-04-26 08:25 | 55.34416 | 11.88805 | 28766 ft | 425 kts | 241° |
| 2026-04-26 08:25 | 55.32622 | 11.84652 | 29276 ft | 427 kts | 241° |
| 2026-04-26 08:26 | 55.30819 | 11.80487 | 29815 ft | 430 kts | 241° |
| 2026-04-26 08:26 | 55.29006 | 11.76302 | 30310 ft | 432 kts | 241° |
| 2026-04-26 08:26 | 55.27181 | 11.72100 | 30714 ft | 434 kts | 241° |
| 2026-04-26 08:26 | 55.25345 | 11.67876 | 31104 ft | 437 kts | 241° |
| 2026-04-26 08:27 | 55.23583 | 11.63552 | 31447 ft | 435 kts | 245° |
| 2026-04-26 08:27 | 55.21965 | 11.59075 | 31839 ft | 435 kts | 245° |
| 2026-04-26 08:27 | 55.20353 | 11.54582 | 32250 ft | 437 kts | 244° |
| 2026-04-26 08:27 | 55.18720 | 11.50087 | 32622 ft | 439 kts | 244° |
| 2026-04-26 08:28 | 55.17067 | 11.45579 | 32975 ft | 441 kts | 244° |
| 2026-04-26 08:28 | 55.15396 | 11.41055 | 33318 ft | 443 kts | 244° |
| 2026-04-26 08:28 | 55.13714 | 11.36523 | 33633 ft | 445 kts | 243° |
| 2026-04-26 08:28 | 55.12020 | 11.31973 | 33972 ft | 447 kts | 243° |
| 2026-04-26 08:29 | 55.10321 | 11.27421 | 34279 ft | 449 kts | 243° |
| 2026-04-26 08:29 | 55.08609 | 11.22844 | 34540 ft | 451 kts | 243° |
| 2026-04-26 08:29 | 55.06885 | 11.18244 | 34722 ft | 454 kts | 243° |
| 2026-04-26 08:29 | 55.05145 | 11.13612 | 34940 ft | 457 kts | 243° |
| 2026-04-26 08:30 | 55.03399 | 11.08975 | 35203 ft | 458 kts | 243° |
| 2026-04-26 08:30 | 55.01646 | 11.04330 | 35457 ft | 458 kts | 242° |
| 2026-04-26 08:30 | 54.99893 | 10.99690 | 35715 ft | 459 kts | 242° |
| 2026-04-26 08:30 | 54.98136 | 10.95050 | 35966 ft | 460 kts | 242° |
| 2026-04-26 08:31 | 54.96376 | 10.90408 | 36285 ft | 459 kts | 242° |
| 2026-04-26 08:31 | 54.94617 | 10.85781 | 36571 ft | 459 kts | 241° |
| 2026-04-26 08:31 | 54.92848 | 10.81148 | 36781 ft | 460 kts | 241° |
| 2026-04-26 08:31 | 54.91053 | 10.76536 | 37034 ft | 461 kts | 240° |
| 2026-04-26 08:32 | 54.89243 | 10.71942 | 37302 ft | 462 kts | 240° |
| 2026-04-26 08:32 | 54.87421 | 10.67335 | 37520 ft | 462 kts | 240° |
| 2026-04-26 08:32 | 54.85601 | 10.62738 | 37768 ft | 462 kts | 240° |
| 2026-04-26 08:32 | 54.83781 | 10.58140 | 37997 ft | 463 kts | 240° |
| 2026-04-26 08:33 | 54.81959 | 10.53537 | 38220 ft | 463 kts | 240° |
| 2026-04-26 08:33 | 54.80134 | 10.48928 | 38445 ft | 463 kts | 240° |
| 2026-04-26 08:33 | 54.78310 | 10.44329 | 38651 ft | 464 kts | 240° |
| 2026-04-26 08:33 | 54.76480 | 10.39719 | 38871 ft | 464 kts | 240° |
| 2026-04-26 08:34 | 54.74673 | 10.35178 | 39053 ft | 464 kts | 240° |
| 2026-04-26 08:34 | 54.72841 | 10.30583 | 39219 ft | 465 kts | 240° |
| 2026-04-26 08:34 | 54.70862 | 10.26136 | 39363 ft | 468 kts | 234° |
| 2026-04-26 08:34 | 54.68759 | 10.21835 | 39526 ft | 469 kts | 233° |
| 2026-04-26 08:35 | 54.66618 | 10.17573 | 39657 ft | 469 kts | 233° |
| 2026-04-26 08:35 | 54.64462 | 10.13345 | 39800 ft | 470 kts | 233° |
| 2026-04-26 08:35 | 54.62292 | 10.09119 | 39944 ft | 470 kts | 233° |
| 2026-04-26 08:35 | 54.60114 | 10.04890 | 40060 ft | 471 kts | 233° |
| 2026-04-26 08:36 | 54.57939 | 10.00668 | 40196 ft | 471 kts | 232° |
| 2026-04-26 08:36 | 54.55764 | 9.96444 | 40293 ft | 472 kts | 232° |
| 2026-04-26 08:36 | 54.51401 | 9.87982 | 40320 ft | 472 kts | 232° |
| 2026-04-26 08:37 | 54.46875 | 9.79778 | 40318 ft | 475 kts | 227° |
| 2026-04-26 08:37 | 54.42014 | 9.72079 | 40320 ft | 476 kts | 226° |
| 2026-04-26 08:38 | 54.37140 | 9.64411 | 40319 ft | 475 kts | 227° |
| 2026-04-26 08:38 | 54.33130 | 9.57995 | 40317 ft | 473 kts | 227° |
| 2026-04-26 08:39 | 54.28348 | 9.50284 | 40321 ft | 472 kts | 227° |
| 2026-04-26 08:39 | 54.23575 | 9.42587 | 40318 ft | 471 kts | 227° |
| 2026-04-26 08:40 | 54.18795 | 9.34912 | 40314 ft | 471 kts | 227° |
| 2026-04-26 08:40 | 54.14015 | 9.27266 | 40300 ft | 471 kts | 227° |
| 2026-04-26 08:41 | 54.09222 | 9.19628 | 40322 ft | 471 kts | 226° |
| 2026-04-26 08:41 | 54.04426 | 9.12009 | 40322 ft | 471 kts | 226° |
| 2026-04-26 08:42 | 53.99628 | 9.04414 | 40326 ft | 471 kts | 226° |
| 2026-04-26 08:42 | 53.94831 | 8.96843 | 40323 ft | 471 kts | 226° |
| 2026-04-26 08:43 | 53.90027 | 8.89288 | 40313 ft | 470 kts | 226° |
| 2026-04-26 08:43 | 53.85229 | 8.81768 | 40321 ft | 469 kts | 225° |
| 2026-04-26 08:44 | 53.80434 | 8.74275 | 40319 ft | 469 kts | 225° |
| 2026-04-26 08:44 | 53.75634 | 8.66800 | 40320 ft | 469 kts | 225° |
| 2026-04-26 08:45 | 53.70829 | 8.59340 | 40319 ft | 469 kts | 225° |
| 2026-04-26 08:45 | 53.66055 | 8.51952 | 40320 ft | 469 kts | 225° |
| 2026-04-26 08:46 | 53.61239 | 8.44524 | 40325 ft | 469 kts | 225° |
| 2026-04-26 08:46 | 53.56420 | 8.37115 | 40333 ft | 469 kts | 225° |
| 2026-04-26 08:47 | 53.51598 | 8.29726 | 40338 ft | 469 kts | 225° |
| 2026-04-26 08:47 | 53.46773 | 8.22355 | 40341 ft | 468 kts | 225° |
| 2026-04-26 08:48 | 53.41951 | 8.15015 | 40344 ft | 468 kts | 225° |
| 2026-04-26 08:48 | 53.37129 | 8.07696 | 40344 ft | 468 kts | 224° |
| 2026-04-26 08:49 | 53.32304 | 8.00396 | 40343 ft | 468 kts | 224° |
| 2026-04-26 08:49 | 53.27474 | 7.93111 | 40344 ft | 468 kts | 224° |
| 2026-04-26 08:50 | 53.22636 | 7.85838 | 40344 ft | 468 kts | 224° |
| 2026-04-26 08:50 | 53.17798 | 7.78588 | 40346 ft | 468 kts | 224° |
| 2026-04-26 08:51 | 53.10527 | 7.67736 | 40346 ft | 468 kts | 224° |
| 2026-04-26 08:52 | 53.05676 | 7.60524 | 40346 ft | 468 kts | 224° |
| 2026-04-26 08:52 | 53.00823 | 7.53330 | 40331 ft | 467 kts | 224° |
| 2026-04-26 08:53 | 52.95963 | 7.46150 | 40347 ft | 468 kts | 224° |
| 2026-04-26 08:53 | 52.91099 | 7.38985 | 40346 ft | 468 kts | 224° |
| 2026-04-26 08:54 | 52.86225 | 7.31830 | 40345 ft | 468 kts | 224° |
| 2026-04-26 08:54 | 52.81351 | 7.24696 | 40348 ft | 468 kts | 224° |
| 2026-04-26 08:55 | 52.76472 | 7.17576 | 40348 ft | 468 kts | 224° |
| 2026-04-26 08:55 | 52.71581 | 7.10462 | 40346 ft | 468 kts | 224° |
| 2026-04-26 08:56 | 52.66693 | 7.03373 | 40347 ft | 468 kts | 224° |
| 2026-04-26 08:56 | 52.61883 | 6.96140 | 40350 ft | 467 kts | 225° |
| 2026-04-26 08:57 | 52.57204 | 6.88820 | 40351 ft | 467 kts | 226° |
| 2026-04-26 08:57 | 52.52481 | 6.81476 | 40351 ft | 468 kts | 225° |
| 2026-04-26 08:58 | 52.47701 | 6.74126 | 40356 ft | 468 kts | 225° |
| 2026-04-26 08:58 | 52.42963 | 6.66890 | 40342 ft | 468 kts | 225° |
| 2026-04-26 08:59 | 52.38194 | 6.59631 | 40357 ft | 468 kts | 225° |
| 2026-04-26 08:59 | 52.33420 | 6.52383 | 40352 ft | 468 kts | 225° |
| 2026-04-26 09:00 | 52.28636 | 6.45142 | 40353 ft | 469 kts | 225° |
| 2026-04-26 09:00 | 52.23844 | 6.37910 | 40354 ft | 469 kts | 225° |
| 2026-04-26 09:01 | 52.19048 | 6.30695 | 40352 ft | 469 kts | 225° |
| 2026-04-26 09:01 | 52.14249 | 6.23498 | 40350 ft | 469 kts | 225° |
| 2026-04-26 09:02 | 52.09444 | 6.16314 | 40342 ft | 469 kts | 225° |
| 2026-04-26 09:02 | 52.04629 | 6.09136 | 40341 ft | 470 kts | 225° |
| 2026-04-26 09:03 | 51.99804 | 6.01965 | 40346 ft | 470 kts | 225° |
| 2026-04-26 09:03 | 51.94976 | 5.94813 | 40346 ft | 470 kts | 224° |
| 2026-04-26 09:04 | 51.90144 | 5.87676 | 40347 ft | 470 kts | 224° |
| 2026-04-26 09:04 | 51.85300 | 5.80543 | 40345 ft | 471 kts | 224° |
| 2026-04-26 09:05 | 51.80456 | 5.73432 | 40346 ft | 471 kts | 224° |
| 2026-04-26 09:05 | 51.75604 | 5.66330 | 40346 ft | 471 kts | 224° |
| 2026-04-26 09:06 | 51.70750 | 5.59247 | 40344 ft | 471 kts | 224° |
| 2026-04-26 09:06 | 51.65888 | 5.52175 | 40344 ft | 471 kts | 224° |
| 2026-04-26 09:07 | 51.61021 | 5.45116 | 40346 ft | 471 kts | 224° |
| 2026-04-26 09:07 | 51.56151 | 5.38074 | 40347 ft | 471 kts | 224° |
| 2026-04-26 09:08 | 51.51275 | 5.31043 | 40347 ft | 471 kts | 224° |
| 2026-04-26 09:08 | 51.46393 | 5.24027 | 40346 ft | 471 kts | 224° |
| 2026-04-26 09:09 | 51.41512 | 5.17031 | 40342 ft | 471 kts | 224° |
| 2026-04-26 09:09 | 51.36653 | 5.10089 | 40344 ft | 471 kts | 224° |
| 2026-04-26 09:10 | 51.31759 | 5.03117 | 40331 ft | 471 kts | 224° |
| 2026-04-26 09:10 | 51.26863 | 4.96163 | 40331 ft | 471 kts | 224° |
| 2026-04-26 09:11 | 51.21962 | 4.89222 | 40321 ft | 471 kts | 224° |
| 2026-04-26 09:11 | 51.17052 | 4.82289 | 40327 ft | 471 kts | 224° |
| 2026-04-26 09:12 | 51.12144 | 4.75380 | 40325 ft | 471 kts | 224° |
| 2026-04-26 09:12 | 51.07229 | 4.68482 | 40341 ft | 471 kts | 224° |
| 2026-04-26 09:13 | 51.02306 | 4.61592 | 40319 ft | 472 kts | 224° |
| 2026-04-26 09:13 | 50.97380 | 4.54719 | 40318 ft | 471 kts | 224° |
| 2026-04-26 09:14 | 50.92445 | 4.47853 | 40320 ft | 471 kts | 224° |
| 2026-04-26 09:14 | 50.87511 | 4.41009 | 40319 ft | 471 kts | 224° |
| 2026-04-26 09:15 | 50.82569 | 4.34173 | 40319 ft | 472 kts | 224° |
| 2026-04-26 09:15 | 50.77625 | 4.27355 | 40326 ft | 472 kts | 223° |
| 2026-04-26 09:16 | 50.72675 | 4.20549 | 40326 ft | 472 kts | 223° |
| 2026-04-26 09:16 | 50.67724 | 4.13760 | 40328 ft | 472 kts | 223° |
| 2026-04-26 09:17 | 50.62716 | 4.07051 | 40323 ft | 473 kts | 219° |
| 2026-04-26 09:17 | 50.57108 | 4.01572 | 40299 ft | 476 kts | 212° |
| 2026-04-26 09:18 | 50.51298 | 3.96539 | 40316 ft | 477 kts | 211° |
| 2026-04-26 09:18 | 50.45463 | 3.91597 | 40314 ft | 477 kts | 211° |
| 2026-04-26 09:19 | 50.39624 | 3.86642 | 40308 ft | 477 kts | 211° |
| 2026-04-26 09:19 | 50.33797 | 3.81685 | 40293 ft | 477 kts | 211° |
| 2026-04-26 09:20 | 50.27964 | 3.76728 | 40294 ft | 477 kts | 211° |
| 2026-04-26 09:20 | 50.22137 | 3.71790 | 40295 ft | 477 kts | 211° |
| 2026-04-26 09:21 | 50.16301 | 3.66859 | 40288 ft | 477 kts | 211° |
| 2026-04-26 09:21 | 50.10460 | 3.61939 | 40288 ft | 478 kts | 211° |
| 2026-04-26 09:22 | 50.04648 | 3.57055 | 40286 ft | 478 kts | 211° |
| 2026-04-26 09:22 | 49.98791 | 3.52150 | 40284 ft | 478 kts | 211° |
| 2026-04-26 09:23 | 49.92928 | 3.47252 | 40284 ft | 478 kts | 211° |
| 2026-04-26 09:23 | 49.87062 | 3.42365 | 40281 ft | 479 kts | 211° |
| 2026-04-26 09:24 | 49.81194 | 3.37491 | 40278 ft | 479 kts | 211° |
| 2026-04-26 09:24 | 49.75316 | 3.32621 | 40278 ft | 479 kts | 211° |
| 2026-04-26 09:25 | 49.70390 | 3.28551 | 40276 ft | 479 kts | 211° |
| 2026-04-26 09:25 | 49.64547 | 3.23735 | 40271 ft | 479 kts | 211° |
| 2026-04-26 09:26 | 49.58662 | 3.18897 | 40273 ft | 480 kts | 211° |
| 2026-04-26 09:26 | 49.52769 | 3.14066 | 40271 ft | 480 kts | 211° |
| 2026-04-26 09:27 | 49.46983 | 3.08961 | 40266 ft | 479 kts | 215° |
| 2026-04-26 09:27 | 49.41391 | 3.03372 | 40268 ft | 480 kts | 216° |
| 2026-04-26 09:28 | 49.35829 | 2.97712 | 40265 ft | 480 kts | 216° |
| 2026-04-26 09:28 | 49.30270 | 2.92065 | 40260 ft | 480 kts | 216° |
| 2026-04-26 09:29 | 49.24698 | 2.86433 | 40260 ft | 480 kts | 216° |
| 2026-04-26 09:29 | 49.19118 | 2.80819 | 40262 ft | 480 kts | 216° |
| 2026-04-26 09:30 | 49.13533 | 2.75216 | 40261 ft | 480 kts | 216° |
| 2026-04-26 09:30 | 49.07952 | 2.69631 | 40264 ft | 480 kts | 216° |
| 2026-04-26 09:31 | 49.02353 | 2.64044 | 40264 ft | 480 kts | 216° |
| 2026-04-26 09:31 | 48.96756 | 2.58473 | 40265 ft | 481 kts | 216° |
| 2026-04-26 09:32 | 48.91148 | 2.52905 | 40267 ft | 481 kts | 216° |
| 2026-04-26 09:32 | 48.85536 | 2.47350 | 40263 ft | 481 kts | 216° |
| 2026-04-26 09:33 | 48.79964 | 2.41851 | 40264 ft | 481 kts | 216° |
| 2026-04-26 09:33 | 48.74348 | 2.36321 | 40265 ft | 481 kts | 216° |
| 2026-04-26 09:34 | 48.68724 | 2.30800 | 40265 ft | 481 kts | 216° |
| 2026-04-26 09:34 | 48.63102 | 2.25294 | 40263 ft | 481 kts | 216° |
| 2026-04-26 09:35 | 48.57317 | 2.20164 | 40261 ft | 485 kts | 206° |
| 2026-04-26 09:35 | 48.50857 | 2.17166 | 40246 ft | 488 kts | 195° |
| 2026-04-26 09:36 | 48.44207 | 2.14974 | 40241 ft | 489 kts | 194° |
| 2026-04-26 09:36 | 48.37541 | 2.12910 | 40244 ft | 490 kts | 194° |
| 2026-04-26 09:37 | 48.30857 | 2.10917 | 40245 ft | 491 kts | 189° |
| 2026-04-26 09:37 | 48.24023 | 2.10917 | 40239 ft | 494 kts | 176° |
| 2026-04-26 09:38 | 48.17189 | 2.12213 | 40232 ft | 495 kts | 173° |
| 2026-04-26 09:38 | 48.10347 | 2.12466 | 40239 ft | 491 kts | 186° |
| 2026-04-26 09:39 | 48.03596 | 2.11401 | 40235 ft | 491 kts | 189° |
| 2026-04-26 09:39 | 47.96828 | 2.10072 | 40241 ft | 491 kts | 189° |
| 2026-04-26 09:40 | 47.90054 | 2.08726 | 40235 ft | 491 kts | 189° |
| 2026-04-26 09:40 | 47.83274 | 2.07415 | 40235 ft | 491 kts | 189° |
| 2026-04-26 09:41 | 47.76500 | 2.06128 | 40221 ft | 491 kts | 189° |
| 2026-04-26 09:41 | 47.69719 | 2.04845 | 40207 ft | 491 kts | 189° |
| 2026-04-26 09:42 | 47.63000 | 2.03149 | 40206 ft | 488 kts | 199° |
| 2026-04-26 09:42 | 47.56609 | 1.99824 | 40215 ft | 487 kts | 203° |
| 2026-04-26 09:43 | 47.50302 | 1.96165 | 40210 ft | 486 kts | 204° |
| 2026-04-26 09:43 | 47.44011 | 1.92471 | 40211 ft | 487 kts | 204° |
| 2026-04-26 09:44 | 47.37707 | 1.88809 | 40211 ft | 487 kts | 204° |
| 2026-04-26 09:44 | 47.31400 | 1.85178 | 40236 ft | 487 kts | 204° |
| 2026-04-26 09:45 | 47.25091 | 1.81562 | 40236 ft | 487 kts | 203° |
| 2026-04-26 09:45 | 47.18773 | 1.77949 | 40233 ft | 487 kts | 203° |
| 2026-04-26 09:46 | 47.12448 | 1.74374 | 40227 ft | 487 kts | 203° |
| 2026-04-26 09:46 | 47.06115 | 1.70824 | 40210 ft | 487 kts | 203° |
| 2026-04-26 09:47 | 46.99782 | 1.67277 | 40210 ft | 487 kts | 203° |
| 2026-04-26 09:47 | 46.93444 | 1.63731 | 40207 ft | 487 kts | 203° |
| 2026-04-26 09:48 | 46.87142 | 1.60212 | 40212 ft | 488 kts | 203° |
| 2026-04-26 09:48 | 46.80804 | 1.56682 | 40212 ft | 488 kts | 203° |
| 2026-04-26 09:49 | 46.74465 | 1.53160 | 40214 ft | 488 kts | 203° |
| 2026-04-26 09:49 | 46.68123 | 1.49645 | 40217 ft | 488 kts | 203° |
| 2026-04-26 09:50 | 46.61781 | 1.46140 | 40216 ft | 488 kts | 203° |
| 2026-04-26 09:50 | 46.55434 | 1.42641 | 40213 ft | 488 kts | 203° |
| 2026-04-26 09:51 | 46.49088 | 1.39151 | 40219 ft | 488 kts | 203° |
| 2026-04-26 09:51 | 46.42740 | 1.35668 | 40219 ft | 488 kts | 202° |
| 2026-04-26 09:52 | 46.36388 | 1.32193 | 40217 ft | 488 kts | 202° |
| 2026-04-26 09:52 | 46.26873 | 1.27002 | 40216 ft | 487 kts | 202° |
| 2026-04-26 09:53 | 46.20529 | 1.23553 | 40216 ft | 487 kts | 202° |
| 2026-04-26 09:53 | 46.14183 | 1.20110 | 40211 ft | 487 kts | 202° |
| 2026-04-26 09:54 | 46.07838 | 1.16676 | 40214 ft | 487 kts | 202° |
| 2026-04-26 09:54 | 46.01488 | 1.13248 | 40213 ft | 487 kts | 202° |
| 2026-04-26 09:55 | 45.95142 | 1.09831 | 40205 ft | 487 kts | 202° |
| 2026-04-26 09:55 | 45.88790 | 1.06419 | 40211 ft | 487 kts | 202° |
| 2026-04-26 09:56 | 45.82539 | 1.02712 | 40213 ft | 485 kts | 211° |
| 2026-04-26 09:56 | 45.77089 | 0.97238 | 40214 ft | 481 kts | 221° |
| 2026-04-26 09:57 | 45.71934 | 0.91131 | 40219 ft | 481 kts | 222° |
| 2026-04-26 09:57 | 45.66829 | 0.84945 | 40217 ft | 481 kts | 222° |
| 2026-04-26 09:58 | 45.61710 | 0.78792 | 40219 ft | 481 kts | 222° |
| 2026-04-26 09:58 | 45.56562 | 0.72662 | 40210 ft | 481 kts | 222° |
| 2026-04-26 09:59 | 45.52282 | 0.67588 | 40214 ft | 481 kts | 222° |
| 2026-04-26 09:59 | 45.46258 | 0.60464 | 40213 ft | 481 kts | 222° |
| 2026-04-26 10:00 | 45.41101 | 0.54380 | 40215 ft | 481 kts | 222° |
| 2026-04-26 10:00 | 45.35942 | 0.48307 | 40210 ft | 481 kts | 221° |
| 2026-04-26 10:01 | 45.30785 | 0.42252 | 40211 ft | 481 kts | 221° |
| 2026-04-26 10:01 | 45.25610 | 0.36191 | 40206 ft | 482 kts | 221° |
| 2026-04-26 10:02 | 45.20443 | 0.30153 | 40209 ft | 481 kts | 221° |
| 2026-04-26 10:02 | 45.15270 | 0.24122 | 40198 ft | 481 kts | 221° |
| 2026-04-26 10:03 | 45.10092 | 0.18102 | 40199 ft | 482 kts | 221° |
| 2026-04-26 10:03 | 45.04914 | 0.12095 | 40219 ft | 482 kts | 221° |
| 2026-04-26 10:04 | 44.99765 | 0.06133 | 40215 ft | 482 kts | 221° |
| 2026-04-26 10:04 | 44.94579 | 0.00148 | 40194 ft | 482 kts | 221° |
| 2026-04-26 10:05 | 44.89389 | -0.05828 | 40200 ft | 481 kts | 221° |
| 2026-04-26 10:05 | 44.84199 | -0.11789 | 40202 ft | 481 kts | 221° |
| 2026-04-26 10:06 | 44.79009 | -0.17737 | 40204 ft | 481 kts | 221° |
| 2026-04-26 10:06 | 44.73822 | -0.23668 | 40199 ft | 481 kts | 221° |
| 2026-04-26 10:07 | 44.68624 | -0.29597 | 40204 ft | 481 kts | 221° |
| 2026-04-26 10:07 | 44.63417 | -0.35490 | 40195 ft | 481 kts | 219° |
| 2026-04-26 10:08 | 44.57926 | -0.40887 | 40203 ft | 482 kts | 215° |
| 2026-04-26 10:08 | 44.52329 | -0.46064 | 40201 ft | 482 kts | 215° |
| 2026-04-26 10:09 | 44.47694 | -0.50408 | 40207 ft | 482 kts | 216° |
| 2026-04-26 10:09 | 44.41212 | -0.56580 | 40202 ft | 482 kts | 216° |
| 2026-04-26 10:10 | 44.35684 | -0.61865 | 40212 ft | 482 kts | 216° |
| 2026-04-26 10:10 | 44.30151 | -0.67144 | 40214 ft | 482 kts | 216° |
| 2026-04-26 10:11 | 44.24605 | -0.72395 | 40210 ft | 482 kts | 215° |
| 2026-04-26 10:11 | 44.19958 | -0.76668 | 40207 ft | 482 kts | 214° |
| 2026-04-26 10:12 | 44.14353 | -0.81779 | 40212 ft | 481 kts | 214° |
| 2026-04-26 10:12 | 44.08748 | -0.86897 | 40212 ft | 481 kts | 214° |
| 2026-04-26 10:13 | 44.03158 | -0.92006 | 40207 ft | 481 kts | 214° |
| 2026-04-26 10:13 | 43.97560 | -0.97116 | 40206 ft | 481 kts | 214° |
| 2026-04-26 10:14 | 43.91969 | -1.02206 | 40212 ft | 480 kts | 214° |
| 2026-04-26 10:14 | 43.86382 | -1.07281 | 40210 ft | 480 kts | 214° |
| 2026-04-26 10:15 | 43.80788 | -1.12352 | 40209 ft | 480 kts | 214° |
| 2026-04-26 10:15 | 43.75229 | -1.17378 | 40210 ft | 480 kts | 214° |
| 2026-04-26 10:16 | 43.69598 | -1.22458 | 40210 ft | 480 kts | 214° |
| 2026-04-26 10:16 | 43.64038 | -1.27463 | 40210 ft | 480 kts | 214° |
| 2026-04-26 10:17 | 43.58441 | -1.32489 | 40208 ft | 481 kts | 214° |
| 2026-04-26 10:17 | 43.52824 | -1.37523 | 40211 ft | 481 kts | 214° |
| 2026-04-26 10:18 | 43.47208 | -1.42543 | 40212 ft | 481 kts | 214° |
| 2026-04-26 10:18 | 43.41585 | -1.47559 | 40207 ft | 481 kts | 214° |
| 2026-04-26 10:19 | 43.35972 | -1.52556 | 40210 ft | 480 kts | 213° |
| 2026-04-26 10:19 | 43.30367 | -1.57528 | 40206 ft | 480 kts | 213° |
| 2026-04-26 10:20 | 43.24319 | -1.61374 | 40205 ft | 481 kts | 196° |
| 2026-04-26 10:20 | 43.17729 | -1.63027 | 40202 ft | 483 kts | 188° |
| 2026-04-26 10:21 | 43.11052 | -1.64119 | 40196 ft | 483 kts | 187° |
| 2026-04-26 10:21 | 43.04372 | -1.65144 | 40207 ft | 485 kts | 187° |
| 2026-04-26 10:22 | 43.01018 | -1.65675 | 40449 ft | 483 kts | 187° |
| 2026-04-26 10:22 | 42.97715 | -1.66392 | 40666 ft | 480 kts | 193° |
| 2026-04-26 10:22 | 42.94519 | -1.67684 | 40843 ft | 479 kts | 202° |
| 2026-04-26 10:22 | 42.91495 | -1.69579 | 40992 ft | 478 kts | 208° |
| 2026-04-26 10:23 | 42.88577 | -1.71755 | 41130 ft | 478 kts | 211° |
| 2026-04-26 10:23 | 42.85712 | -1.74066 | 41187 ft | 480 kts | 212° |
| 2026-04-26 10:23 | 42.79985 | -1.78860 | 41186 ft | 485 kts | 213° |
| 2026-04-26 10:24 | 42.74220 | -1.83650 | 41183 ft | 485 kts | 212° |
| 2026-04-26 10:24 | 42.68476 | -1.88348 | 41175 ft | 485 kts | 212° |
| 2026-04-26 10:25 | 42.62685 | -1.93045 | 41172 ft | 485 kts | 212° |
| 2026-04-26 10:25 | 42.56889 | -1.97732 | 41172 ft | 485 kts | 212° |
| 2026-04-26 10:26 | 42.51086 | -2.02418 | 41174 ft | 486 kts | 212° |
| 2026-04-26 10:26 | 42.45278 | -2.07099 | 41179 ft | 486 kts | 212° |
| 2026-04-26 10:27 | 42.39467 | -2.11773 | 41180 ft | 486 kts | 212° |
| 2026-04-26 10:27 | 42.33654 | -2.16437 | 41178 ft | 486 kts | 212° |
| 2026-04-26 10:28 | 42.27838 | -2.21094 | 41183 ft | 486 kts | 212° |
| 2026-04-26 10:28 | 42.22017 | -2.25746 | 41175 ft | 486 kts | 212° |
| 2026-04-26 10:29 | 42.16193 | -2.30390 | 41165 ft | 486 kts | 212° |
| 2026-04-26 10:29 | 42.10411 | -2.34990 | 41168 ft | 485 kts | 212° |
| 2026-04-26 10:30 | 42.04596 | -2.39607 | 41171 ft | 485 kts | 211° |
| 2026-04-26 10:30 | 41.98777 | -2.44217 | 41171 ft | 485 kts | 211° |
| 2026-04-26 10:31 | 41.92957 | -2.48818 | 41171 ft | 485 kts | 211° |
| 2026-04-26 10:31 | 41.87140 | -2.53406 | 41171 ft | 485 kts | 211° |
| 2026-04-26 10:32 | 41.81322 | -2.57985 | 41171 ft | 484 kts | 211° |
| 2026-04-26 10:32 | 41.75510 | -2.62550 | 41169 ft | 484 kts | 211° |
| 2026-04-26 10:33 | 41.69692 | -2.67110 | 41170 ft | 484 kts | 211° |
| 2026-04-26 10:33 | 41.63878 | -2.71658 | 41171 ft | 484 kts | 211° |
| 2026-04-26 10:34 | 41.58046 | -2.76210 | 41171 ft | 485 kts | 211° |
| 2026-04-26 10:34 | 41.52221 | -2.80747 | 41167 ft | 485 kts | 211° |
| 2026-04-26 10:35 | 41.46397 | -2.85273 | 41171 ft | 485 kts | 211° |
| 2026-04-26 10:35 | 41.40605 | -2.89765 | 41170 ft | 484 kts | 211° |
| 2026-04-26 10:36 | 41.34777 | -2.94276 | 41168 ft | 484 kts | 211° |
| 2026-04-26 10:36 | 41.28952 | -2.98774 | 41167 ft | 484 kts | 211° |
| 2026-04-26 10:37 | 41.23121 | -3.03268 | 41168 ft | 484 kts | 211° |
| 2026-04-26 10:37 | 41.17293 | -3.07750 | 41167 ft | 484 kts | 211° |
| 2026-04-26 10:38 | 41.11461 | -3.12227 | 41164 ft | 484 kts | 211° |
| 2026-04-26 10:38 | 41.05623 | -3.16699 | 41165 ft | 484 kts | 211° |
| 2026-04-26 10:39 | 40.99788 | -3.21159 | 41162 ft | 484 kts | 211° |
| 2026-04-26 10:39 | 40.93955 | -3.25608 | 41159 ft | 484 kts | 211° |
| 2026-04-26 10:40 | 40.88119 | -3.30050 | 41159 ft | 484 kts | 211° |
| 2026-04-26 10:40 | 40.82280 | -3.34486 | 41167 ft | 484 kts | 211° |
| 2026-04-26 10:41 | 40.76439 | -3.38913 | 41165 ft | 484 kts | 211° |
| 2026-04-26 10:41 | 40.70596 | -3.43334 | 41161 ft | 484 kts | 211° |
| 2026-04-26 10:42 | 40.64754 | -3.47744 | 41159 ft | 484 kts | 211° |
| 2026-04-26 10:42 | 40.58945 | -3.52122 | 41157 ft | 484 kts | 211° |
| 2026-04-26 10:43 | 40.53091 | -3.56524 | 41156 ft | 484 kts | 211° |
| 2026-04-26 10:43 | 40.47241 | -3.60913 | 41157 ft | 484 kts | 211° |
| 2026-04-26 10:44 | 40.41388 | -3.65297 | 41150 ft | 484 kts | 211° |
| 2026-04-26 10:44 | 40.35537 | -3.69669 | 41183 ft | 484 kts | 211° |
| 2026-04-26 10:45 | 40.29683 | -3.74036 | 41184 ft | 484 kts | 211° |
| 2026-04-26 10:45 | 40.23828 | -3.78394 | 41137 ft | 484 kts | 211° |
| 2026-04-26 10:46 | 40.17975 | -3.82743 | 41132 ft | 484 kts | 211° |
| 2026-04-26 10:46 | 40.12119 | -3.87084 | 41133 ft | 484 kts | 211° |
| 2026-04-26 10:47 | 40.06254 | -3.91424 | 41135 ft | 484 kts | 211° |
| 2026-04-26 10:47 | 40.00391 | -3.95753 | 41136 ft | 484 kts | 211° |
| 2026-04-26 10:48 | 39.94526 | -4.00075 | 41131 ft | 484 kts | 211° |
| 2026-04-26 10:48 | 39.88658 | -4.04391 | 41135 ft | 484 kts | 211° |
| 2026-04-26 10:49 | 39.82783 | -4.08703 | 41133 ft | 484 kts | 211° |
| 2026-04-26 10:49 | 39.76911 | -4.13005 | 41131 ft | 484 kts | 211° |
| 2026-04-26 10:50 | 39.72029 | -4.16575 | 41125 ft | 484 kts | 211° |
| 2026-04-26 10:50 | 39.65162 | -4.21587 | 41130 ft | 485 kts | 211° |
| 2026-04-26 10:51 | 39.56382 | -4.27978 | 41125 ft | 485 kts | 211° |
| 2026-04-26 10:52 | 39.50502 | -4.32247 | 41123 ft | 485 kts | 211° |
| 2026-04-26 10:52 | 39.44616 | -4.36513 | 41121 ft | 485 kts | 211° |
| 2026-04-26 10:53 | 39.38728 | -4.40772 | 41123 ft | 485 kts | 211° |
| 2026-04-26 10:53 | 39.32842 | -4.45021 | 41116 ft | 485 kts | 211° |
| 2026-04-26 10:54 | 39.24010 | -4.51382 | 41114 ft | 485 kts | 211° |
| 2026-04-26 10:54 | 39.18115 | -4.55618 | 41116 ft | 485 kts | 211° |
| 2026-04-26 10:55 | 39.12230 | -4.59836 | 41110 ft | 485 kts | 211° |
| 2026-04-26 10:55 | 39.07323 | -4.63348 | 41111 ft | 485 kts | 211° |
| 2026-04-26 10:56 | 39.00421 | -4.68280 | 41105 ft | 485 kts | 211° |
| 2026-04-26 10:56 | 38.94653 | -4.72778 | 41103 ft | 484 kts | 216° |
| 2026-04-26 10:57 | 38.89084 | -4.77650 | 41104 ft | 484 kts | 216° |
| 2026-04-26 10:57 | 38.83514 | -4.82495 | 41105 ft | 484 kts | 216° |
| 2026-04-26 10:58 | 38.77937 | -4.87240 | 41101 ft | 485 kts | 215° |
| 2026-04-26 10:58 | 38.72296 | -4.91986 | 41103 ft | 485 kts | 215° |
| 2026-04-26 10:59 | 38.66659 | -4.96711 | 41107 ft | 484 kts | 215° |
| 2026-04-26 10:59 | 38.61022 | -5.01433 | 41090 ft | 484 kts | 215° |
| 2026-04-26 11:00 | 38.55382 | -5.06149 | 41087 ft | 484 kts | 215° |
| 2026-04-26 11:00 | 38.49628 | -5.10626 | 41099 ft | 485 kts | 209° |
| 2026-04-26 11:01 | 38.44621 | -5.13864 | 41093 ft | 486 kts | 208° |
| 2026-04-26 11:01 | 38.38543 | -5.17640 | 41090 ft | 486 kts | 207° |
| 2026-04-26 11:02 | 38.32464 | -5.21384 | 41089 ft | 486 kts | 207° |
| 2026-04-26 11:02 | 38.26386 | -5.25135 | 41086 ft | 486 kts | 207° |
| 2026-04-26 11:03 | 38.20305 | -5.28892 | 41089 ft | 486 kts | 207° |
| 2026-04-26 11:03 | 38.14225 | -5.32644 | 41087 ft | 486 kts | 207° |
| 2026-04-26 11:04 | 38.08150 | -5.36386 | 41083 ft | 485 kts | 207° |
| 2026-04-26 11:04 | 38.02077 | -5.40118 | 41084 ft | 485 kts | 207° |
| 2026-04-26 11:05 | 37.96049 | -5.43817 | 41085 ft | 485 kts | 207° |
| 2026-04-26 11:05 | 37.89939 | -5.47559 | 41084 ft | 485 kts | 207° |
| 2026-04-26 11:06 | 37.83908 | -5.51245 | 41080 ft | 485 kts | 207° |
| 2026-04-26 11:06 | 37.77831 | -5.54953 | 41081 ft | 485 kts | 207° |
| 2026-04-26 11:07 | 37.71754 | -5.58654 | 41082 ft | 485 kts | 207° |
| 2026-04-26 11:07 | 37.65678 | -5.62347 | 41075 ft | 485 kts | 207° |
| 2026-04-26 11:08 | 37.59602 | -5.66034 | 41070 ft | 485 kts | 207° |
| 2026-04-26 11:08 | 37.53520 | -5.69718 | 41073 ft | 485 kts | 207° |
| 2026-04-26 11:09 | 37.47445 | -5.73390 | 41073 ft | 484 kts | 207° |
| 2026-04-26 11:09 | 37.41642 | -5.77593 | 41076 ft | 480 kts | 220° |
| 2026-04-26 11:10 | 37.36448 | -5.82847 | 41076 ft | 479 kts | 221° |
| 2026-04-26 11:10 | 37.31369 | -5.88276 | 41072 ft | 479 kts | 222° |
| 2026-04-26 11:11 | 37.26301 | -5.93713 | 41062 ft | 479 kts | 222° |
| 2026-04-26 11:11 | 37.21213 | -5.99129 | 41056 ft | 480 kts | 222° |
| 2026-04-26 11:12 | 37.16115 | -6.04528 | 41061 ft | 480 kts | 222° |
| 2026-04-26 11:12 | 37.11013 | -6.09914 | 41060 ft | 480 kts | 221° |
| 2026-04-26 11:13 | 37.05912 | -6.15290 | 41057 ft | 479 kts | 221° |
| 2026-04-26 11:13 | 37.00813 | -6.20656 | 41059 ft | 479 kts | 221° |
| 2026-04-26 11:14 | 36.95745 | -6.25980 | 41057 ft | 479 kts | 221° |
| 2026-04-26 11:14 | 36.90648 | -6.31326 | 41060 ft | 479 kts | 221° |
| 2026-04-26 11:15 | 36.85541 | -6.36671 | 41055 ft | 479 kts | 221° |
| 2026-04-26 11:15 | 36.80438 | -6.42004 | 41050 ft | 479 kts | 221° |
| 2026-04-26 11:16 | 36.75327 | -6.47334 | 41047 ft | 478 kts | 221° |
| 2026-04-26 11:16 | 36.70228 | -6.52642 | 41058 ft | 478 kts | 221° |
| 2026-04-26 11:17 | 36.65125 | -6.57945 | 41064 ft | 477 kts | 221° |
| 2026-04-26 11:17 | 36.60025 | -6.63236 | 41065 ft | 477 kts | 221° |
| 2026-04-26 11:18 | 36.54920 | -6.68523 | 41060 ft | 477 kts | 221° |
| 2026-04-26 11:18 | 36.49819 | -6.73796 | 41062 ft | 477 kts | 221° |
| 2026-04-26 11:19 | 36.44714 | -6.79064 | 41061 ft | 477 kts | 221° |
| 2026-04-26 11:19 | 36.39606 | -6.84322 | 41062 ft | 477 kts | 221° |
| 2026-04-26 11:20 | 36.35365 | -6.88681 | 41059 ft | 476 kts | 221° |
| 2026-04-26 11:20 | 36.29409 | -6.94792 | 41064 ft | 475 kts | 221° |
| 2026-04-26 11:21 | 36.24360 | -6.99963 | 41047 ft | 472 kts | 221° |
| 2026-04-26 11:21 | 36.19302 | -7.05136 | 41062 ft | 471 kts | 221° |
| 2026-04-26 11:22 | 36.18448 | -7.06008 | 41043 ft | 471 kts | 221° |